sensor_id;sensor_type;location;lat;lon;timestamp;P1;durP1;ratioP1;P2;durP2;ratioP2
5297;SDS011;14738;42.668;23.250;2023-05-18T00:01:37;2.23;;;2.03;;
5297;SDS011;14738;42.668;23.250;2023-05-18T00:04:05;1.70;;;1.70;;
5297;SDS011;14738;42.668;23.250;2023-05-18T00:06:32;15.13;;;3.23;;
5297;SDS011;14738;42.668;23.250;2023-05-18T00:08:57;2.30;;;2.20;;
5297;SDS011;14738;42.668;23.250;2023-05-18T00:11:22;2.40;;;2.30;;
5297;SDS011;14738;42.668;23.250;2023-05-18T00:13:48;1.60;;;1.60;;
5297;SDS011;14738;42.668;23.250;2023-05-18T00:16:13;1.80;;;1.80;;
5297;SDS011;14738;42.668;23.250;2023-05-18T00:18:39;1.90;;;1.80;;
5297;SDS011;14738;42.668;23.250;2023-05-18T00:21:05;4.40;;;1.70;;
5297;SDS011;14738;42.668;23.250;2023-05-18T00:23:32;1.77;;;1.67;;
5297;SDS011;14738;42.668;23.250;2023-05-18T00:25:58;1.87;;;1.77;;
5297;SDS011;14738;42.668;23.250;2023-05-18T00:28:25;2.10;;;2.00;;
5297;SDS011;14738;42.668;23.250;2023-05-18T00:30:54;1.57;;;1.57;;
5297;SDS011;14738;42.668;23.250;2023-05-18T00:33:20;2.80;;;1.77;;
5297;SDS011;14738;42.668;23.250;2023-05-18T00:35:46;1.70;;;1.70;;
5297;SDS011;14738;42.668;23.250;2023-05-18T00:38:11;1.60;;;1.60;;
5297;SDS011;14738;42.668;23.250;2023-05-18T00:40:39;1.50;;;1.40;;
5297;SDS011;14738;42.668;23.250;2023-05-18T00:43:04;1.43;;;1.40;;
5297;SDS011;14738;42.668;23.250;2023-05-18T00:45:30;1.53;;;1.43;;
5297;SDS011;14738;42.668;23.250;2023-05-18T00:47:55;1.20;;;1.20;;
5297;SDS011;14738;42.668;23.250;2023-05-18T00:50:21;1.23;;;1.20;;
5297;SDS011;14738;42.668;23.250;2023-05-18T00:52:46;0.97;;;0.97;;
5297;SDS011;14738;42.668;23.250;2023-05-18T00:55:12;1.37;;;1.03;;
5297;SDS011;14738;42.668;23.250;2023-05-18T00:57:38;7.20;;;1.53;;
5297;SDS011;14738;42.668;23.250;2023-05-18T01:00:06;0.90;;;0.90;;
5297;SDS011;14738;42.668;23.250;2023-05-18T01:02:35;1.10;;;1.00;;
5297;SDS011;14738;42.668;23.250;2023-05-18T01:05:01;1.27;;;1.10;;
5297;SDS011;14738;42.668;23.250;2023-05-18T01:07:27;1.20;;;1.10;;
5297;SDS011;14738;42.668;23.250;2023-05-18T01:09:57;1.30;;;1.30;;
5297;SDS011;14738;42.668;23.250;2023-05-18T01:12:31;1.80;;;1.20;;
5297;SDS011;14738;42.668;23.250;2023-05-18T01:15:02;1.37;;;1.37;;
5297;SDS011;14738;42.668;23.250;2023-05-18T01:20:57;1.20;;;1.20;;
5297;SDS011;14738;42.668;23.250;2023-05-18T01:26:16;1.43;;;1.17;;
5297;SDS011;14738;42.668;23.250;2023-05-18T01:28:53;1.73;;;1.30;;
5297;SDS011;14738;42.668;23.250;2023-05-18T01:31:20;7.20;;;1.40;;
5297;SDS011;14738;42.668;23.250;2023-05-18T01:33:47;1.37;;;1.37;;
5297;SDS011;14738;42.668;23.250;2023-05-18T01:36:12;1.57;;;1.10;;
5297;SDS011;14738;42.668;23.250;2023-05-18T01:38:38;1.43;;;1.30;;
5297;SDS011;14738;42.668;23.250;2023-05-18T01:49:19;1.40;;;1.40;;
5297;SDS011;14738;42.668;23.250;2023-05-18T01:51:55;5.17;;;4.80;;
5297;SDS011;14738;42.668;23.250;2023-05-18T01:54:24;1.57;;;1.53;;
5297;SDS011;14738;42.668;23.250;2023-05-18T01:56:53;1.70;;;1.60;;
5297;SDS011;14738;42.668;23.250;2023-05-18T01:59:20;1.80;;;1.70;;
5297;SDS011;14738;42.668;23.250;2023-05-18T02:01:47;2.30;;;1.70;;
5297;SDS011;14738;42.668;23.250;2023-05-18T02:04:13;1.90;;;1.80;;
5297;SDS011;14738;42.668;23.250;2023-05-18T02:06:39;1.80;;;1.70;;
5297;SDS011;14738;42.668;23.250;2023-05-18T02:09:04;1.60;;;1.60;;
5297;SDS011;14738;42.668;23.250;2023-05-18T02:11:30;1.30;;;1.30;;
5297;SDS011;14738;42.668;23.250;2023-05-18T02:13:55;1.53;;;1.20;;
5297;SDS011;14738;42.668;23.250;2023-05-18T02:16:21;1.50;;;1.50;;
5297;SDS011;14738;42.668;23.250;2023-05-18T02:18:46;1.20;;;1.20;;
5297;SDS011;14738;42.668;23.250;2023-05-18T02:21:12;1.07;;;1.07;;
5297;SDS011;14738;42.668;23.250;2023-05-18T02:23:38;1.40;;;1.40;;
5297;SDS011;14738;42.668;23.250;2023-05-18T02:26:04;1.20;;;1.20;;
5297;SDS011;14738;42.668;23.250;2023-05-18T02:28:30;1.47;;;1.47;;
5297;SDS011;14738;42.668;23.250;2023-05-18T02:31:08;1.60;;;1.60;;
5297;SDS011;14738;42.668;23.250;2023-05-18T02:33:38;1.40;;;1.40;;
5297;SDS011;14738;42.668;23.250;2023-05-18T02:36:08;1.60;;;1.60;;
5297;SDS011;14738;42.668;23.250;2023-05-18T02:38:35;6.43;;;1.67;;
5297;SDS011;14738;42.668;23.250;2023-05-18T02:41:01;1.30;;;1.30;;
5297;SDS011;14738;42.668;23.250;2023-05-18T02:43:27;1.87;;;1.83;;
5297;SDS011;14738;42.668;23.250;2023-05-18T02:45:52;2.27;;;2.17;;
5297;SDS011;14738;42.668;23.250;2023-05-18T02:48:17;2.40;;;1.93;;
5297;SDS011;14738;42.668;23.250;2023-05-18T02:50:43;1.73;;;1.60;;
5297;SDS011;14738;42.668;23.250;2023-05-18T02:53:10;1.20;;;1.20;;
5297;SDS011;14738;42.668;23.250;2023-05-18T02:55:36;1.53;;;1.53;;
5297;SDS011;14738;42.668;23.250;2023-05-18T02:58:02;1.70;;;1.60;;
5297;SDS011;14738;42.668;23.250;2023-05-18T03:00:27;1.30;;;1.30;;
5297;SDS011;14738;42.668;23.250;2023-05-18T03:02:54;1.03;;;1.03;;
5297;SDS011;14738;42.668;23.250;2023-05-18T03:05:21;1.83;;;1.20;;
5297;SDS011;14738;42.668;23.250;2023-05-18T03:07:49;1.30;;;1.30;;
5297;SDS011;14738;42.668;23.250;2023-05-18T03:10:15;1.50;;;1.50;;
5297;SDS011;14738;42.668;23.250;2023-05-18T03:12:41;1.63;;;1.63;;
5297;SDS011;14738;42.668;23.250;2023-05-18T03:15:06;2.27;;;2.20;;
5297;SDS011;14738;42.668;23.250;2023-05-18T03:17:33;2.47;;;2.37;;
5297;SDS011;14738;42.668;23.250;2023-05-18T03:19:58;2.60;;;2.50;;
5297;SDS011;14738;42.668;23.250;2023-05-18T03:22:23;3.53;;;2.87;;
5297;SDS011;14738;42.668;23.250;2023-05-18T03:24:49;3.33;;;3.23;;
5297;SDS011;14738;42.668;23.250;2023-05-18T03:27:15;3.53;;;3.37;;
5297;SDS011;14738;42.668;23.250;2023-05-18T03:29:42;3.67;;;3.47;;
5297;SDS011;14738;42.668;23.250;2023-05-18T03:32:08;3.60;;;3.30;;
5297;SDS011;14738;42.668;23.250;2023-05-18T03:34:33;3.73;;;3.53;;
5297;SDS011;14738;42.668;23.250;2023-05-18T03:37:01;4.60;;;4.40;;
5297;SDS011;14738;42.668;23.250;2023-05-18T03:39:29;4.43;;;4.03;;
5297;SDS011;14738;42.668;23.250;2023-05-18T03:41:55;3.87;;;3.67;;
5297;SDS011;14738;42.668;23.250;2023-05-18T03:44:20;4.60;;;4.20;;
5297;SDS011;14738;42.668;23.250;2023-05-18T03:46:46;4.83;;;4.53;;
5297;SDS011;14738;42.668;23.250;2023-05-18T03:49:11;5.30;;;4.63;;
5297;SDS011;14738;42.668;23.250;2023-05-18T03:51:36;4.30;;;4.10;;
5297;SDS011;14738;42.668;23.250;2023-05-18T03:54:02;4.30;;;4.03;;
5297;SDS011;14738;42.668;23.250;2023-05-18T03:56:28;4.70;;;4.30;;
5297;SDS011;14738;42.668;23.250;2023-05-18T03:58:55;5.03;;;4.43;;
5297;SDS011;14738;42.668;23.250;2023-05-18T04:01:22;5.50;;;5.00;;
5297;SDS011;14738;42.668;23.250;2023-05-18T04:03:48;4.30;;;4.10;;
5297;SDS011;14738;42.668;23.250;2023-05-18T04:06:15;4.80;;;4.40;;
5297;SDS011;14738;42.668;23.250;2023-05-18T04:08:40;5.00;;;4.70;;
5297;SDS011;14738;42.668;23.250;2023-05-18T04:11:06;4.73;;;4.43;;
5297;SDS011;14738;42.668;23.250;2023-05-18T04:13:31;4.47;;;4.23;;
5297;SDS011;14738;42.668;23.250;2023-05-18T04:15:56;5.40;;;5.00;;
5297;SDS011;14738;42.668;23.250;2023-05-18T04:18:22;5.70;;;3.80;;
5297;SDS011;14738;42.668;23.250;2023-05-18T04:20:48;5.60;;;5.10;;
5297;SDS011;14738;42.668;23.250;2023-05-18T04:23:14;4.10;;;3.90;;
5297;SDS011;14738;42.668;23.250;2023-05-18T04:25:40;4.70;;;4.30;;
5297;SDS011;14738;42.668;23.250;2023-05-18T04:28:06;4.90;;;4.67;;
5297;SDS011;14738;42.668;23.250;2023-05-18T04:30:32;4.93;;;4.60;;
5297;SDS011;14738;42.668;23.250;2023-05-18T04:32:59;4.60;;;4.30;;
5297;SDS011;14738;42.668;23.250;2023-05-18T04:35:24;5.23;;;4.90;;
5297;SDS011;14738;42.668;23.250;2023-05-18T04:37:50;4.87;;;4.57;;
5297;SDS011;14738;42.668;23.250;2023-05-18T04:40:16;4.83;;;4.53;;
5297;SDS011;14738;42.668;23.250;2023-05-18T04:42:42;5.20;;;4.90;;
5297;SDS011;14738;42.668;23.250;2023-05-18T04:45:12;6.27;;;4.90;;
5297;SDS011;14738;42.668;23.250;2023-05-18T04:47:40;5.13;;;4.73;;
5297;SDS011;14738;42.668;23.250;2023-05-18T04:50:06;5.47;;;5.07;;
5297;SDS011;14738;42.668;23.250;2023-05-18T04:52:31;5.63;;;5.13;;
5297;SDS011;14738;42.668;23.250;2023-05-18T04:55:01;4.90;;;4.60;;
5297;SDS011;14738;42.668;23.250;2023-05-18T04:57:26;4.50;;;4.30;;
5297;SDS011;14738;42.668;23.250;2023-05-18T04:59:52;5.00;;;4.70;;
5297;SDS011;14738;42.668;23.250;2023-05-18T05:02:17;4.83;;;4.53;;
5297;SDS011;14738;42.668;23.250;2023-05-18T05:04:43;5.13;;;4.73;;
5297;SDS011;14738;42.668;23.250;2023-05-18T05:07:08;4.80;;;4.50;;
5297;SDS011;14738;42.668;23.250;2023-05-18T05:09:34;5.50;;;5.10;;
5297;SDS011;14738;42.668;23.250;2023-05-18T05:11:59;4.50;;;4.30;;
5297;SDS011;14738;42.668;23.250;2023-05-18T05:14:26;5.17;;;4.77;;
5297;SDS011;14738;42.668;23.250;2023-05-18T05:16:51;4.80;;;4.30;;
5297;SDS011;14738;42.668;23.250;2023-05-18T05:19:16;4.03;;;3.83;;
5297;SDS011;14738;42.668;23.250;2023-05-18T05:21:42;4.67;;;4.40;;
5297;SDS011;14738;42.668;23.250;2023-05-18T05:24:07;4.50;;;4.30;;
5297;SDS011;14738;42.668;23.250;2023-05-18T05:26:33;6.30;;;4.80;;
5297;SDS011;14738;42.668;23.250;2023-05-18T05:28:59;4.67;;;4.37;;
5297;SDS011;14738;42.668;23.250;2023-05-18T05:31:24;5.30;;;4.90;;
5297;SDS011;14738;42.668;23.250;2023-05-18T05:33:50;5.00;;;4.70;;
5297;SDS011;14738;42.668;23.250;2023-05-18T05:36:15;5.07;;;4.77;;
5297;SDS011;14738;42.668;23.250;2023-05-18T05:38:40;6.07;;;5.67;;
5297;SDS011;14738;42.668;23.250;2023-05-18T05:41:06;5.93;;;5.53;;
5297;SDS011;14738;42.668;23.250;2023-05-18T05:43:31;4.47;;;4.13;;
5297;SDS011;14738;42.668;23.250;2023-05-18T05:45:57;4.53;;;4.27;;
5297;SDS011;14738;42.668;23.250;2023-05-18T05:48:22;5.17;;;4.77;;
5297;SDS011;14738;42.668;23.250;2023-05-18T05:50:47;4.70;;;4.40;;
5297;SDS011;14738;42.668;23.250;2023-05-18T05:53:13;5.27;;;4.87;;
5297;SDS011;14738;42.668;23.250;2023-05-18T05:55:41;5.30;;;4.90;;
5297;SDS011;14738;42.668;23.250;2023-05-18T05:58:07;6.30;;;5.33;;
5297;SDS011;14738;42.668;23.250;2023-05-18T06:00:33;4.63;;;4.33;;
5297;SDS011;14738;42.668;23.250;2023-05-18T06:02:59;7.27;;;4.70;;
5297;SDS011;14738;42.668;23.250;2023-05-18T06:05:24;4.80;;;4.40;;
5297;SDS011;14738;42.668;23.250;2023-05-18T06:07:50;4.80;;;4.50;;
5297;SDS011;14738;42.668;23.250;2023-05-18T06:10:15;7.40;;;5.30;;
5297;SDS011;14738;42.668;23.250;2023-05-18T06:12:40;5.70;;;5.30;;
5297;SDS011;14738;42.668;23.250;2023-05-18T06:15:06;6.10;;;5.70;;
5297;SDS011;14738;42.668;23.250;2023-05-18T06:17:32;4.87;;;4.47;;
5297;SDS011;14738;42.668;23.250;2023-05-18T06:19:57;4.93;;;4.53;;
5297;SDS011;14738;42.668;23.250;2023-05-18T06:22:23;5.20;;;4.80;;
5297;SDS011;14738;42.668;23.250;2023-05-18T06:24:49;5.57;;;5.17;;
5297;SDS011;14738;42.668;23.250;2023-05-18T06:27:14;6.37;;;5.97;;
5297;SDS011;14738;42.668;23.250;2023-05-18T06:29:40;6.93;;;6.43;;
5297;SDS011;14738;42.668;23.250;2023-05-18T06:32:06;5.67;;;5.27;;
5297;SDS011;14738;42.668;23.250;2023-05-18T06:34:31;6.20;;;5.70;;
5297;SDS011;14738;42.668;23.250;2023-05-18T06:36:57;5.60;;;5.20;;
5297;SDS011;14738;42.668;23.250;2023-05-18T06:39:23;5.57;;;5.17;;
5297;SDS011;14738;42.668;23.250;2023-05-18T06:41:48;5.40;;;5.00;;
5297;SDS011;14738;42.668;23.250;2023-05-18T06:44:16;7.20;;;5.20;;
5297;SDS011;14738;42.668;23.250;2023-05-18T06:46:41;5.03;;;4.73;;
5297;SDS011;14738;42.668;23.250;2023-05-18T06:49:06;6.00;;;5.57;;
5297;SDS011;14738;42.668;23.250;2023-05-18T06:51:32;6.03;;;5.63;;
5297;SDS011;14738;42.668;23.250;2023-05-18T06:53:57;6.43;;;5.97;;
5297;SDS011;14738;42.668;23.250;2023-05-18T06:56:23;6.37;;;5.87;;
5297;SDS011;14738;42.668;23.250;2023-05-18T06:58:48;6.90;;;6.20;;
5297;SDS011;14738;42.668;23.250;2023-05-18T07:01:14;6.63;;;6.13;;
5297;SDS011;14738;42.668;23.250;2023-05-18T07:03:39;7.87;;;7.27;;
5297;SDS011;14738;42.668;23.250;2023-05-18T07:06:04;7.37;;;6.87;;
5297;SDS011;14738;42.668;23.250;2023-05-18T07:08:30;7.50;;;6.90;;
5297;SDS011;14738;42.668;23.250;2023-05-18T07:10:56;9.10;;;8.30;;
5297;SDS011;14738;42.668;23.250;2023-05-18T07:13:22;10.90;;;6.90;;
5297;SDS011;14738;42.668;23.250;2023-05-18T07:15:48;7.60;;;6.90;;
5297;SDS011;14738;42.668;23.250;2023-05-18T07:18:14;8.13;;;7.53;;
5297;SDS011;14738;42.668;23.250;2023-05-18T07:20:43;8.87;;;8.17;;
5297;SDS011;14738;42.668;23.250;2023-05-18T07:23:08;9.50;;;8.70;;
5297;SDS011;14738;42.668;23.250;2023-05-18T07:25:34;9.50;;;8.80;;
5297;SDS011;14738;42.668;23.250;2023-05-18T07:27:59;12.13;;;9.80;;
5297;SDS011;14738;42.668;23.250;2023-05-18T07:30:25;9.63;;;8.60;;
5297;SDS011;14738;42.668;23.250;2023-05-18T07:32:51;10.60;;;9.50;;
5297;SDS011;14738;42.668;23.250;2023-05-18T07:35:16;11.00;;;10.00;;
5297;SDS011;14738;42.668;23.250;2023-05-18T07:37:45;12.03;;;10.27;;
5297;SDS011;14738;42.668;23.250;2023-05-18T07:40:11;11.67;;;10.60;;
5297;SDS011;14738;42.668;23.250;2023-05-18T07:42:40;12.57;;;10.87;;
5297;SDS011;14738;42.668;23.250;2023-05-18T07:45:06;13.90;;;12.60;;
5297;SDS011;14738;42.668;23.250;2023-05-18T07:47:32;12.30;;;11.20;;
5297;SDS011;14738;42.668;23.250;2023-05-18T07:49:58;13.90;;;12.60;;
5297;SDS011;14738;42.668;23.250;2023-05-18T07:52:23;14.60;;;11.87;;
5297;SDS011;14738;42.668;23.250;2023-05-18T07:54:49;11.93;;;10.83;;
5297;SDS011;14738;42.668;23.250;2023-05-18T07:57:15;13.87;;;12.47;;
5297;SDS011;14738;42.668;23.250;2023-05-18T07:59:41;13.07;;;10.97;;
5297;SDS011;14738;42.668;23.250;2023-05-18T08:02:06;12.07;;;11.03;;
5297;SDS011;14738;42.668;23.250;2023-05-18T08:04:32;12.70;;;11.37;;
5297;SDS011;14738;42.668;23.250;2023-05-18T08:06:57;13.90;;;12.37;;
5297;SDS011;14738;42.668;23.250;2023-05-18T08:09:27;16.03;;;11.70;;
5297;SDS011;14738;42.668;23.250;2023-05-18T08:11:52;13.50;;;11.53;;
5297;SDS011;14738;42.668;23.250;2023-05-18T08:14:18;14.27;;;12.77;;
5297;SDS011;14738;42.668;23.250;2023-05-18T08:16:44;14.47;;;12.97;;
5297;SDS011;14738;42.668;23.250;2023-05-18T08:19:09;14.23;;;12.50;;
5297;SDS011;14738;42.668;23.250;2023-05-18T08:21:35;15.17;;;13.60;;
5297;SDS011;14738;42.668;23.250;2023-05-18T08:24:01;15.97;;;14.37;;
5297;SDS011;14738;42.668;23.250;2023-05-18T08:26:27;16.37;;;14.77;;
5297;SDS011;14738;42.668;23.250;2023-05-18T08:28:52;18.90;;;14.73;;
5297;SDS011;14738;42.668;23.250;2023-05-18T08:31:19;17.00;;;14.60;;
5297;SDS011;14738;42.668;23.250;2023-05-18T08:33:45;16.37;;;14.60;;
5297;SDS011;14738;42.668;23.250;2023-05-18T08:36:11;22.33;;;12.70;;
5297;SDS011;14738;42.668;23.250;2023-05-18T08:38:36;21.40;;;14.43;;
5297;SDS011;14738;42.668;23.250;2023-05-18T08:41:22;17.83;;;13.20;;
5297;SDS011;14738;42.668;23.250;2023-05-18T08:43:53;15.60;;;14.00;;
5297;SDS011;14738;42.668;23.250;2023-05-18T08:46:32;14.57;;;12.67;;
5297;SDS011;14738;42.668;23.250;2023-05-18T08:49:00;16.87;;;15.10;;
5297;SDS011;14738;42.668;23.250;2023-05-18T08:51:27;16.13;;;14.53;;
5297;SDS011;14738;42.668;23.250;2023-05-18T08:53:54;15.10;;;13.80;;
5297;SDS011;14738;42.668;23.250;2023-05-18T08:56:22;15.57;;;14.03;;
5297;SDS011;14738;42.668;23.250;2023-05-18T08:58:51;20.33;;;13.87;;
5297;SDS011;14738;42.668;23.250;2023-05-18T09:01:19;14.73;;;13.27;;
5297;SDS011;14738;42.668;23.250;2023-05-18T09:03:46;14.50;;;12.40;;
5297;SDS011;14738;42.668;23.250;2023-05-18T09:06:15;14.90;;;12.20;;
5297;SDS011;14738;42.668;23.250;2023-05-18T09:08:42;14.33;;;12.83;;
5297;SDS011;14738;42.668;23.250;2023-05-18T09:11:09;14.57;;;12.60;;
5297;SDS011;14738;42.668;23.250;2023-05-18T09:13:37;14.07;;;12.73;;
5297;SDS011;14738;42.668;23.250;2023-05-18T09:16:02;14.93;;;11.93;;
5297;SDS011;14738;42.668;23.250;2023-05-18T09:18:28;13.53;;;12.23;;
5297;SDS011;14738;42.668;23.250;2023-05-18T09:20:53;12.87;;;11.50;;
5297;SDS011;14738;42.668;23.250;2023-05-18T09:23:19;13.13;;;11.93;;
5297;SDS011;14738;42.668;23.250;2023-05-18T09:25:45;15.53;;;11.70;;
5297;SDS011;14738;42.668;23.250;2023-05-18T09:28:24;13.27;;;11.70;;
5297;SDS011;14738;42.668;23.250;2023-05-18T09:30:51;15.33;;;11.87;;
5297;SDS011;14738;42.668;23.250;2023-05-18T09:33:18;13.07;;;11.57;;
5297;SDS011;14738;42.668;23.250;2023-05-18T09:35:48;11.73;;;10.60;;
5297;SDS011;14738;42.668;23.250;2023-05-18T09:38:15;11.73;;;10.57;;
5297;SDS011;14738;42.668;23.250;2023-05-18T09:40:45;12.23;;;10.47;;
5297;SDS011;14738;42.668;23.250;2023-05-18T09:43:12;10.67;;;9.57;;
5297;SDS011;14738;42.668;23.250;2023-05-18T09:45:41;12.00;;;10.70;;
5297;SDS011;14738;42.668;23.250;2023-05-18T09:48:08;10.60;;;9.70;;
5297;SDS011;14738;42.668;23.250;2023-05-18T09:50:34;12.07;;;10.03;;
5297;SDS011;14738;42.668;23.250;2023-05-18T09:53:02;11.27;;;10.27;;
5297;SDS011;14738;42.668;23.250;2023-05-18T09:55:30;10.13;;;9.23;;
5297;SDS011;14738;42.668;23.250;2023-05-18T09:57:56;10.67;;;9.67;;
5297;SDS011;14738;42.668;23.250;2023-05-18T10:00:22;11.47;;;10.13;;
5297;SDS011;14738;42.668;23.250;2023-05-18T10:02:48;11.33;;;10.20;;
5297;SDS011;14738;42.668;23.250;2023-05-18T10:05:26;13.20;;;11.00;;
5297;SDS011;14738;42.668;23.250;2023-05-18T10:07:54;11.93;;;9.40;;
5297;SDS011;14738;42.668;23.250;2023-05-18T10:10:21;9.57;;;8.57;;
5297;SDS011;14738;42.668;23.250;2023-05-18T10:12:49;9.57;;;8.67;;
5297;SDS011;14738;42.668;23.250;2023-05-18T10:15:16;9.27;;;8.47;;
5297;SDS011;14738;42.668;23.250;2023-05-18T10:17:45;10.37;;;9.43;;
5297;SDS011;14738;42.668;23.250;2023-05-18T10:20:14;11.40;;;10.20;;
5297;SDS011;14738;42.668;23.250;2023-05-18T10:22:43;10.00;;;9.00;;
5297;SDS011;14738;42.668;23.250;2023-05-18T10:25:10;10.33;;;9.27;;
5297;SDS011;14738;42.668;23.250;2023-05-18T10:27:40;11.80;;;9.10;;
5297;SDS011;14738;42.668;23.250;2023-05-18T10:30:07;8.33;;;7.63;;
5297;SDS011;14738;42.668;23.250;2023-05-18T10:32:34;11.13;;;8.00;;
5297;SDS011;14738;42.668;23.250;2023-05-18T10:35:00;9.23;;;8.43;;
5297;SDS011;14738;42.668;23.250;2023-05-18T10:37:29;8.77;;;7.87;;
5297;SDS011;14738;42.668;23.250;2023-05-18T10:39:57;8.80;;;8.10;;
5297;SDS011;14738;42.668;23.250;2023-05-18T10:42:25;10.50;;;8.90;;
5297;SDS011;14738;42.668;23.250;2023-05-18T10:44:53;9.10;;;8.23;;
5297;SDS011;14738;42.668;23.250;2023-05-18T10:47:21;10.40;;;9.30;;
5297;SDS011;14738;42.668;23.250;2023-05-18T10:49:49;9.80;;;8.67;;
5297;SDS011;14738;42.668;23.250;2023-05-18T10:52:15;9.27;;;8.37;;
5297;SDS011;14738;42.668;23.250;2023-05-18T10:54:41;10.10;;;9.20;;
5297;SDS011;14738;42.668;23.250;2023-05-18T10:57:10;10.30;;;9.40;;
5297;SDS011;14738;42.668;23.250;2023-05-18T10:59:40;10.33;;;8.70;;
5297;SDS011;14738;42.668;23.250;2023-05-18T11:02:07;9.33;;;8.53;;
5297;SDS011;14738;42.668;23.250;2023-05-18T11:04:37;9.67;;;8.77;;
5297;SDS011;14738;42.668;23.250;2023-05-18T11:07:04;10.23;;;7.70;;
5297;SDS011;14738;42.668;23.250;2023-05-18T11:09:30;18.83;;;9.30;;
5297;SDS011;14738;42.668;23.250;2023-05-18T11:11:56;13.10;;;11.90;;
5297;SDS011;14738;42.668;23.250;2023-05-18T11:14:26;12.67;;;11.47;;
5297;SDS011;14738;42.668;23.250;2023-05-18T11:27:52;10.13;;;9.23;;
5297;SDS011;14738;42.668;23.250;2023-05-18T11:30:43;11.70;;;9.20;;
5297;SDS011;14738;42.668;23.250;2023-05-18T11:35:53;11.17;;;10.17;;
5297;SDS011;14738;42.668;23.250;2023-05-18T11:38:45;11.50;;;10.40;;
5297;SDS011;14738;42.668;23.250;2023-05-18T11:41:28;11.40;;;10.40;;
5297;SDS011;14738;42.668;23.250;2023-05-18T11:47:20;24.90;;;17.50;;
5297;SDS011;14738;42.668;23.250;2023-05-18T11:49:43;25.67;;;18.63;;
5297;SDS011;14738;42.668;23.250;2023-05-18T11:54:52;9.97;;;9.10;;
5297;SDS011;14738;42.668;23.250;2023-05-18T11:57:23;8.40;;;6.50;;
5297;SDS011;14738;42.668;23.250;2023-05-18T11:59:54;7.20;;;6.60;;
5297;SDS011;14738;42.668;23.250;2023-05-18T12:02:23;6.10;;;5.50;;
5297;SDS011;14738;42.668;23.250;2023-05-18T12:04:53;5.70;;;5.30;;
5297;SDS011;14738;42.668;23.250;2023-05-18T12:07:21;5.50;;;5.20;;
5297;SDS011;14738;42.668;23.250;2023-05-18T12:09:49;7.10;;;6.40;;
5297;SDS011;14738;42.668;23.250;2023-05-18T12:12:15;5.50;;;5.00;;
5297;SDS011;14738;42.668;23.250;2023-05-18T12:14:44;5.03;;;4.73;;
5297;SDS011;14738;42.668;23.250;2023-05-18T12:17:14;4.97;;;4.50;;
5297;SDS011;14738;42.668;23.250;2023-05-18T12:19:43;4.63;;;4.23;;
5297;SDS011;14738;42.668;23.250;2023-05-18T12:22:11;5.70;;;5.30;;
5297;SDS011;14738;42.668;23.250;2023-05-18T12:24:38;4.70;;;4.30;;
5297;SDS011;14738;42.668;23.250;2023-05-18T12:27:04;4.30;;;3.90;;
5297;SDS011;14738;42.668;23.250;2023-05-18T12:29:31;4.97;;;4.57;;
5297;SDS011;14738;42.668;23.250;2023-05-18T12:31:57;5.07;;;4.73;;
5297;SDS011;14738;42.668;23.250;2023-05-18T12:34:29;4.70;;;4.30;;
5297;SDS011;14738;42.668;23.250;2023-05-18T12:36:55;5.20;;;4.70;;
5297;SDS011;14738;42.668;23.250;2023-05-18T12:39:21;6.20;;;5.70;;
5297;SDS011;14738;42.668;23.250;2023-05-18T12:41:49;5.53;;;5.13;;
5297;SDS011;14738;42.668;23.250;2023-05-18T12:44:14;5.57;;;5.17;;
5297;SDS011;14738;42.668;23.250;2023-05-18T12:46:40;5.43;;;4.90;;
5297;SDS011;14738;42.668;23.250;2023-05-18T12:49:07;6.67;;;5.57;;
5297;SDS011;14738;42.668;23.250;2023-05-18T12:51:33;6.27;;;5.67;;
5297;SDS011;14738;42.668;23.250;2023-05-18T12:54:05;5.90;;;5.50;;
5297;SDS011;14738;42.668;23.250;2023-05-18T12:56:50;7.03;;;6.43;;
5297;SDS011;14738;42.668;23.250;2023-05-18T12:59:18;6.40;;;5.90;;
5297;SDS011;14738;42.668;23.250;2023-05-18T13:01:44;8.23;;;7.10;;
5297;SDS011;14738;42.668;23.250;2023-05-18T13:04:10;6.47;;;5.97;;
5297;SDS011;14738;42.668;23.250;2023-05-18T13:06:39;6.97;;;6.43;;
5297;SDS011;14738;42.668;23.250;2023-05-18T13:09:11;7.10;;;6.40;;
5297;SDS011;14738;42.668;23.250;2023-05-18T13:11:38;7.40;;;6.27;;
5297;SDS011;14738;42.668;23.250;2023-05-18T13:14:04;8.00;;;7.30;;
5297;SDS011;14738;42.668;23.250;2023-05-18T13:16:32;6.17;;;5.57;;
5297;SDS011;14738;42.668;23.250;2023-05-18T13:19:02;7.10;;;6.50;;
5297;SDS011;14738;42.668;23.250;2023-05-18T13:21:29;8.07;;;6.40;;
5297;SDS011;14738;42.668;23.250;2023-05-18T13:23:55;7.53;;;6.83;;
5297;SDS011;14738;42.668;23.250;2023-05-18T13:26:20;6.70;;;6.20;;
5297;SDS011;14738;42.668;23.250;2023-05-18T13:28:49;6.70;;;6.10;;
5297;SDS011;14738;42.668;23.250;2023-05-18T13:31:16;7.50;;;6.70;;
5297;SDS011;14738;42.668;23.250;2023-05-18T13:33:42;8.50;;;7.70;;
5297;SDS011;14738;42.668;23.250;2023-05-18T13:36:08;7.63;;;6.43;;
5297;SDS011;14738;42.668;23.250;2023-05-18T13:38:33;6.37;;;5.87;;
5297;SDS011;14738;42.668;23.250;2023-05-18T13:41:01;7.17;;;6.57;;
5297;SDS011;14738;42.668;23.250;2023-05-18T13:43:30;6.67;;;6.17;;
5297;SDS011;14738;42.668;23.250;2023-05-18T13:45:56;7.13;;;6.40;;
5297;SDS011;14738;42.668;23.250;2023-05-18T13:48:22;9.17;;;6.60;;
5297;SDS011;14738;42.668;23.250;2023-05-18T13:50:48;7.60;;;6.90;;
5297;SDS011;14738;42.668;23.250;2023-05-18T13:53:13;7.37;;;6.70;;
5297;SDS011;14738;42.668;23.250;2023-05-18T13:55:39;7.43;;;6.63;;
5297;SDS011;14738;42.668;23.250;2023-05-18T13:58:04;6.80;;;6.20;;
5297;SDS011;14738;42.668;23.250;2023-05-18T14:00:30;7.27;;;6.67;;
5297;SDS011;14738;42.668;23.250;2023-05-18T14:02:57;7.00;;;6.50;;
5297;SDS011;14738;42.668;23.250;2023-05-18T14:05:23;8.60;;;7.80;;
5297;SDS011;14738;42.668;23.250;2023-05-18T14:07:48;7.57;;;6.87;;
5297;SDS011;14738;42.668;23.250;2023-05-18T14:10:16;8.97;;;8.17;;
5297;SDS011;14738;42.668;23.250;2023-05-18T14:12:42;9.97;;;8.40;;
5297;SDS011;14738;42.668;23.250;2023-05-18T14:15:08;12.33;;;10.47;;
5297;SDS011;14738;42.668;23.250;2023-05-18T14:17:35;8.73;;;7.73;;
5297;SDS011;14738;42.668;23.250;2023-05-18T14:20:01;6.50;;;6.00;;
5297;SDS011;14738;42.668;23.250;2023-05-18T14:22:28;6.40;;;5.90;;
5297;SDS011;14738;42.668;23.250;2023-05-18T14:24:54;5.93;;;5.43;;
5297;SDS011;14738;42.668;23.250;2023-05-18T14:27:20;6.20;;;5.63;;
5297;SDS011;14738;42.668;23.250;2023-05-18T14:29:45;8.97;;;6.33;;
5297;SDS011;14738;42.668;23.250;2023-05-18T14:32:11;21.20;;;8.43;;
5297;SDS011;14738;42.668;23.250;2023-05-18T14:34:36;7.40;;;6.70;;
5297;SDS011;14738;42.668;23.250;2023-05-18T14:37:02;9.23;;;6.87;;
5297;SDS011;14738;42.668;23.250;2023-05-18T14:39:27;7.50;;;6.80;;
5297;SDS011;14738;42.668;23.250;2023-05-18T14:41:53;6.90;;;6.20;;
5297;SDS011;14738;42.668;23.250;2023-05-18T14:44:18;6.17;;;5.63;;
5297;SDS011;14738;42.668;23.250;2023-05-18T14:46:44;7.20;;;6.50;;
5297;SDS011;14738;42.668;23.250;2023-05-18T14:49:09;15.00;;;6.50;;
5297;SDS011;14738;42.668;23.250;2023-05-18T14:51:35;18.30;;;7.87;;
5297;SDS011;14738;42.668;23.250;2023-05-18T14:54:00;7.90;;;7.17;;
5297;SDS011;14738;42.668;23.250;2023-05-18T14:56:26;9.00;;;7.23;;
5297;SDS011;14738;42.668;23.250;2023-05-18T14:58:51;8.67;;;7.73;;
5297;SDS011;14738;42.668;23.250;2023-05-18T15:01:17;8.27;;;7.47;;
5297;SDS011;14738;42.668;23.250;2023-05-18T15:03:42;8.17;;;7.40;;
5297;SDS011;14738;42.668;23.250;2023-05-18T15:06:08;8.30;;;6.80;;
5297;SDS011;14738;42.668;23.250;2023-05-18T15:08:33;7.63;;;6.93;;
5297;SDS011;14738;42.668;23.250;2023-05-18T15:10:58;7.07;;;6.37;;
5297;SDS011;14738;42.668;23.250;2023-05-18T15:13:24;7.83;;;7.13;;